Time;durP1;ratioP1;P1;durP2;ratioP2;P2;SDS_P1;SDS_P2;PMS_P1;PMS_P2;Temp;Humidity;BMP_temperature;BMP_pressure;BME280_temperature;BME280_humidity;BME280_pressure;Samples;Min_cycle;Max_cycle;Signal;HPM_P1;HPM_P2
2022/04/24 00:00:56;;;;;;;6.93;3.15;;;;;;;8.85;82.41;99688.19;5188209;28;20080;-76
2022/04/24 00:03:26;;;;;;;4.28;2.40;;;;;;;8.78;82.57;99686.78;5191788;28;20025;-76
2022/04/24 00:05:57;;;;;;;7.35;2.55;;;;;;;8.77;82.81;99677.25;5188436;28;20033;-76
2022/04/24 00:08:27;;;;;;;6.10;2.75;;;;;;;8.71;83.04;99690.53;5186593;28;20029;-76
2022/04/24 00:10:57;;;;;;;4.10;2.58;;;;;;;8.66;83.39;99681.22;5194354;28;20030;-76
2022/04/24 00:13:31;;;;;;;5.55;2.70;;;;;;;8.64;83.46;99681.28;5200071;28;20115;-75
2022/04/24 00:16:01;;;;;;;3.72;2.50;;;;;;;8.63;83.37;99682.19;5190732;28;20036;-75
2022/04/24 00:18:32;;;;;;;5.55;3.00;;;;;;;8.59;83.85;99677.19;5188782;28;20021;-75
2022/04/24 00:21:03;;;;;;;4.32;2.50;;;;;;;8.48;84.06;99682.84;5179301;28;20062;-75
2022/04/24 00:23:33;;;;;;;5.13;2.50;;;;;;;8.49;83.54;99668.91;5188040;28;20059;-75
2022/04/24 00:26:04;;;;;;;4.53;2.45;;;;;;;8.48;83.72;99667.22;5189140;28;20026;-76
2022/04/24 00:28:34;;;;;;;4.25;2.50;;;;;;;8.44;84.56;99663.06;5190016;28;20373;-75
2022/04/24 00:31:04;;;;;;;6.47;2.60;;;;;;;8.39;84.29;99662.38;5188891;28;20565;-75
2022/04/24 00:33:34;;;;;;;4.53;2.78;;;;;;;8.36;84.32;99666.88;5190637;28;20422;-76
2022/04/24 00:36:05;;;;;;;8.82;2.63;;;;;;;8.34;84.14;99664.31;5188880;28;20181;-76
2022/04/24 00:38:35;;;;;;;5.47;2.90;;;;;;;8.37;84.08;99653.78;5185441;28;20033;-76
2022/04/24 00:41:06;;;;;;;4.15;2.45;;;;;;;8.30;84.41;99659.31;5180772;28;20034;-75
2022/04/24 00:43:36;;;;;;;4.90;2.60;;;;;;;8.22;85.10;99657.00;5188469;28;20072;-75
2022/04/24 00:46:38;;;;;;;5.43;2.40;;;;;;;8.15;85.21;99652.09;5189165;28;20053;-75
2022/04/24 00:49:09;;;;;;;5.43;2.47;;;;;;;8.17;84.60;99656.31;5185860;28;20025;-75
2022/04/24 00:51:42;;;;;;;5.57;2.40;;;;;;;8.09;85.23;99648.00;5182127;28;20073;-75
2022/04/24 00:54:12;;;;;;;6.72;2.97;;;;;;;8.05;85.60;99645.56;5193440;28;20037;-75
2022/04/24 00:56:43;;;;;;;5.20;2.70;;;;;;;7.97;85.91;99653.69;5181311;28;20101;-76
2022/04/24 00:59:15;;;;;;;5.43;2.60;;;;;;;7.95;85.63;99639.91;5181756;28;20643;-76
2022/04/24 01:01:45;;;;;;;6.22;2.50;;;;;;;7.89;86.57;99640.13;5189917;28;20054;-75
2022/04/24 01:04:16;;;;;;;5.38;2.72;;;;;;;8.01;86.19;99639.63;5190886;28;20071;-76
2022/04/24 01:06:47;;;;;;;3.95;2.45;;;;;;;7.97;86.39;99639.81;5193605;28;20022;-76
2022/04/24 01:09:22;;;;;;;7.93;2.50;;;;;;;7.86;86.36;99640.25;5182920;28;20022;-76
2022/04/24 01:11:53;;;;;;;;;;;;;;;7.76;87.24;99633.72;5185918;28;20392;-75
2022/04/24 01:14:26;;;;;;;3.65;2.47;;;;;;;7.65;87.30;99643.69;5190756;28;20280;-75
2022/04/24 01:16:57;;;;;;;5.32;2.78;;;;;;;7.69;87.16;99637.47;5193986;28;20060;-75
2022/04/24 01:19:27;;;;;;;5.60;2.72;;;;;;;7.74;87.65;99639.88;5187496;28;20550;-75
2022/04/24 01:21:58;;;;;;;6.57;3.22;;;;;;;7.76;87.16;99636.34;5181941;28;20124;-76
2022/04/24 01:24:29;;;;;;;5.43;2.70;;;;;;;7.73;87.08;99628.63;5193642;28;20037;-75
2022/04/24 01:27:00;;;;;;;6.45;2.60;;;;;;;7.70;87.33;99633.94;5189626;28;20032;-76
2022/04/24 01:29:30;;;;;;;7.45;3.00;;;;;;;7.73;87.16;99633.81;5194083;28;20044;-75
2022/04/24 01:32:00;;;;;;;11.15;3.03;;;;;;;7.65;86.88;99630.69;5190891;28;20038;-75
2022/04/24 01:34:31;;;;;;;4.90;2.70;;;;;;;7.70;87.74;99628.75;5193718;28;20364;-75
2022/04/24 01:37:01;;;;;;;5.15;2.88;;;;;;;7.62;87.71;99620.41;5190534;28;20447;-75
2022/04/24 01:39:31;;;;;;;5.45;2.75;;;;;;;7.64;87.46;99620.34;5192224;28;20025;-75
2022/04/24 01:42:02;;;;;;;6.55;2.95;;;;;;;7.53;88.02;99632.94;5191950;28;20496;-76
2022/04/24 01:44:32;;;;;;;5.55;2.95;;;;;;;7.50;87.75;99626.06;5191447;28;20091;-75
2022/04/24 01:47:02;;;;;;;7.35;2.83;;;;;;;7.47;89.28;99631.41;5193076;28;20393;-76
2022/04/24 01:49:32;;;;;;;4.40;2.50;;;;;;;7.50;88.13;99626.06;5186738;28;20380;-75
2022/04/24 01:52:06;;;;;;;5.50;2.63;;;;;;;7.45;88.62;99638.41;5182152;28;20388;-75
2022/04/24 01:54:37;;;;;;;5.75;2.80;;;;;;;7.36;89.23;99636.16;5192650;28;20510;-75
2022/04/24 01:57:07;;;;;;;6.85;2.70;;;;;;;7.25;89.82;99634.03;5191405;28;20033;-76
2022/04/24 01:59:37;;;;;;;4.85;2.75;;;;;;;7.16;90.69;99627.41;5192301;28;20032;-76
2022/04/24 02:02:07;;;;;;;5.60;2.97;;;;;;;7.15;90.66;99633.53;5190192;28;20064;-76
2022/04/24 02:04:38;;;;;;;5.82;2.80;;;;;;;7.11;90.74;99634.53;5192003;28;20487;-75
2022/04/24 02:07:08;;;;;;;6.75;2.72;;;;;;;7.13;90.85;99639.66;5191491;28;20376;-75
2022/04/24 02:09:40;;;;;;;12.05;3.08;;;;;;;7.05;90.75;99641.69;5190953;28;20036;-76
2022/04/24 02:12:10;;;;;;;5.97;3.17;;;;;;;7.06;91.62;99645.97;5188949;28;20034;-76
2022/04/24 02:14:40;;;;;;;7.20;2.80;;;;;;;7.08;91.26;99636.41;5191061;28;20041;-76
2022/04/24 02:17:11;;;;;;;8.65;2.92;;;;;;;7.08;91.38;99644.19;5190658;28;20026;-76
2022/04/24 02:19:41;;;;;;;6.00;3.03;;;;;;;7.01;91.34;99635.78;5186892;28;20025;-76
2022/04/24 02:22:11;;;;;;;5.07;2.80;;;;;;;7.07;90.75;99634.72;5182501;28;20228;-76
2022/04/24 02:24:41;;;;;;;5.63;2.83;;;;;;;7.13;90.20;99634.47;5191336;28;20097;-76
2022/04/24 02:27:11;;;;;;;5.90;2.88;;;;;;;7.17;90.13;99625.66;5191466;28;20108;-76
2022/04/24 02:29:42;;;;;;;4.88;2.95;;;;;;;7.15;90.22;99633.53;5191126;28;20103;-75
2022/04/24 02:32:12;;;;;;;5.82;3.00;;;;;;;7.06;90.77;99627.78;5190959;28;20037;-76
2022/04/24 02:34:42;;;;;;;4.80;2.97;;;;;;;6.95;91.49;99624.75;5190673;28;20108;-75
2022/04/24 02:37:13;;;;;;;5.80;2.80;;;;;;;7.04;91.67;99624.41;5191573;28;20479;-76
2022/04/24 02:39:43;;;;;;;5.47;2.90;;;;;;;6.88;91.99;99618.06;5190428;28;20030;-75
2022/04/24 02:42:13;;;;;;;5.53;3.13;;;;;;;6.84;92.33;99619.09;5189876;28;20033;-75
2022/04/24 02:44:44;;;;;;;7.20;3.13;;;;;;;6.92;92.84;99625.69;5191644;28;20025;-76
2022/04/24 02:47:14;;;;;;;5.07;3.10;;;;;;;6.77;93.49;99618.47;5190908;28;20025;-75
2022/04/24 02:49:44;;;;;;;5.53;3.25;;;;;;;6.74;93.33;99617.75;5185997;28;20030;-76
2022/04/24 02:52:14;;;;;;;8.43;3.35;;;;;;;6.84;92.55;99625.16;5182853;28;20221;-76
2022/04/24 02:54:45;;;;;;;7.20;3.38;;;;;;;6.78;93.49;99616.72;5190284;28;20072;-75
2022/04/24 02:57:15;;;;;;;5.93;3.33;;;;;;;6.84;92.54;99619.09;5177710;28;20029;-75
2022/04/24 02:59:48;;;;;;;8.38;3.25;;;;;;;6.89;93.25;99624.94;5185914;28;20021;-76
2022/04/24 03:02:18;;;;;;;7.07;3.10;;;;;;;6.70;94.02;99619.59;5184751;28;20029;-76
2022/04/24 03:04:49;;;;;;;9.55;3.35;;;;;;;6.75;93.33;99612.47;5183204;28;20025;-76
2022/04/24 03:07:19;;;;;;;8.27;3.30;;;;;;;6.76;93.33;99614.16;5184353;28;20017;-76
2022/04/24 03:09:49;;;;;;;7.45;3.10;;;;;;;6.70;94.10;99616.13;5171699;28;20068;-76
2022/04/24 03:12:19;;;;;;;5.10;3.40;;;;;;;6.68;94.15;99616.19;5186505;28;20483;-76
2022/04/24 03:14:50;;;;;;;6.55;3.33;;;;;;;6.62;93.87;99610.38;5176939;28;20488;-76
2022/04/24 03:17:20;;;;;;;5.55;3.22;;;;;;;6.71;94.60;99612.63;5186848;28;20468;-76
2022/04/24 03:19:50;;;;;;;7.50;3.03;;;;;;;6.70;94.42;99619.59;5183451;28;20140;-76
2022/04/24 03:22:20;;;;;;;8.43;3.28;;;;;;;6.73;93.71;99621.25;5183247;28;20029;-76
2022/04/24 03:24:51;;;;;;;7.88;3.60;;;;;;;6.63;94.44;99617.25;5182333;28;20026;-76
2022/04/24 03:27:21;;;;;;;10.50;3.25;;;;;;;6.58;94.45;99613.97;5184486;28;20033;-76
2022/04/24 03:29:52;;;;;;;5.65;3.17;;;;;;;6.63;94.83;99615.50;5185773;28;20040;-76
2022/04/24 03:32:22;;;;;;;6.97;3.17;;;;;;;6.55;95.12;99608.88;5186597;28;20034;-75
2022/04/24 03:34:52;;;;;;;6.95;3.30;;;;;;;6.50;95.75;99606.47;5185738;28;20056;-75
2022/04/24 03:37:22;;;;;;;7.25;3.15;;;;;;;6.55;95.52;99612.34;5182063;28;20030;-75
2022/04/24 03:39:53;;;;;;;5.80;3.03;;;;;;;6.61;94.73;99613.88;5184787;28;20503;-76
2022/04/24 03:42:25;;;;;;;4.47;3.00;;;;;;;6.43;95.23;99610.16;5186336;28;20099;-76
2022/04/24 03:44:56;;;;;;;8.40;2.92;;;;;;;6.49;95.83;99609.09;5184255;28;20036;-76
2022/04/24 03:47:26;;;;;;;6.10;3.47;;;;;;;6.44;95.99;99606.66;5187592;28;20101;-76
2022/04/24 03:49:57;;;;;;;8.25;3.40;;;;;;;6.44;96.22;99611.00;5184761;28;20484;-76
2022/04/24 03:52:27;;;;;;;6.00;3.08;;;;;;;6.32;96.41;99609.69;5186468;28;20044;-76
2022/04/24 03:54:57;;;;;;;6.22;3.15;;;;;;;6.26;97.15;99606.44;5185334;28;20042;-75
2022/04/24 03:57:28;;;;;;;8.38;3.40;;;;;;;6.21;97.44;99603.16;5187022;28;20032;-75
2022/04/24 03:59:58;;;;;;;5.47;3.28;;;;;;;6.30;97.12;99602.84;5185299;28;20109;-75
2022/04/24 04:02:29;;;;;;;6.97;3.50;;;;;;;6.21;97.72;99616.13;5185231;28;20029;-75
2022/04/24 04:04:59;;;;;;;8.05;3.63;;;;;;;6.39;96.65;99610.34;5189037;28;20546;-75
2022/04/24 04:07:30;;;;;;;10.90;3.92;;;;;;;6.44;95.86;99621.41;5188487;28;20137;-76
2022/04/24 04:10:00;;;;;;;5.68;3.25;;;;;;;6.21;97.86;99611.78;5187635;28;20026;-75
2022/04/24 04:12:30;;;;;;;6.50;3.20;;;;;;;6.24;97.93;99618.63;5189109;28;20028;-76
2022/04/24 04:15:02;;;;;;;7.13;3.40;;;;;;;6.37;96.22;99617.28;5191490;28;20108;-76
2022/04/24 04:17:33;;;;;;;8.00;3.15;;;;;;;6.28;97.03;99612.44;5188958;28;20454;-76
2022/04/24 04:20:09;;;;;;;6.63;3.40;;;;;;;6.44;96.67;99619.63;5183588;28;20109;-76
2022/04/24 04:22:51;;;;;;;8.88;3.40;;;;;;;6.40;96.55;99620.63;5186600;28;20030;-76
2022/04/24 04:25:24;;;;;;;7.82;3.45;;;;;;;6.31;97.35;99615.78;5191073;28;20033;-76
2022/04/24 04:27:54;;;;;;;5.38;3.08;;;;;;;6.25;97.29;99607.34;5195742;28;20063;-76
2022/04/24 04:30:24;;;;;;;5.93;2.75;;;;;;;6.34;97.08;99607.03;5191735;28;20033;-76
2022/04/24 04:32:55;;;;;;;5.57;3.08;;;;;;;6.37;96.73;99604.31;5196207;28;20112;-76
2022/04/24 04:35:26;;;;;;;5.03;2.92;;;;;;;6.43;96.73;99614.50;5192267;28;20034;-76
2022/04/24 04:37:56;;;;;;;7.18;3.15;;;;;;;6.52;96.85;99604.66;5193428;28;20041;-76
2022/04/24 04:40:26;;;;;;;6.15;2.80;;;;;;;6.55;96.20;99612.34;5190779;28;20034;-75
2022/04/24 04:42:57;;;;;;;4.40;3.08;;;;;;;6.56;95.40;99610.59;5195063;28;20029;-76
2022/04/24 04:45:27;;;;;;;6.10;3.08;;;;;;;6.61;96.24;99606.91;5191893;28;20021;-76
2022/04/24 04:47:57;;;;;;;5.00;2.80;;;;;;;6.72;95.49;99597.00;5194923;28;20386;-76
2022/04/24 04:50:28;;;;;;;4.72;2.97;;;;;;;6.90;94.48;99598.13;5183396;28;20034;-76
2022/04/24 04:52:58;;;;;;;6.28;2.97;;;;;;;7.01;93.38;99593.34;5187379;28;20537;-76
2022/04/24 04:55:28;;;;;;;8.73;2.85;;;;;;;7.22;91.97;99602.94;5195211;28;20372;-77
2022/04/24 04:57:58;;;;;;;5.35;2.67;;;;;;;7.30;91.66;99610.41;5191589;28;20026;-76
2022/04/24 05:00:29;;;;;;;4.72;2.75;;;;;;;7.41;91.28;99605.66;5194164;28;20030;-76
2022/04/24 05:02:59;;;;;;;8.43;2.90;;;;;;;7.63;89.72;99601.31;5191771;28;20388;-76
2022/04/24 05:05:29;;;;;;;5.13;2.70;;;;;;;8.04;87.89;99597.88;5194820;28;20056;-76
2022/04/24 05:08:00;;;;;;;5.63;2.47;;;;;;;8.45;86.41;99615.28;5193243;28;20033;-76
2022/04/24 05:10:30;;;;;;;6.28;2.38;;;;;;;8.88;83.57;99599.47;5182930;28;20181;-76
2022/04/24 05:13:00;;;;;;;4.97;2.30;;;;;;;9.36;81.78;99611.16;5191109;28;20606;-76
2022/04/24 05:15:31;;;;;;;4.40;2.40;;;;;;;9.69;79.75;99611.34;5193906;28;20033;-76
2022/04/24 05:18:01;;;;;;;3.35;2.10;;;;;;;10.44;76.72;99621.53;5191233;28;20033;-76
2022/04/24 05:20:31;;;;;;;3.33;2.30;;;;;;;11.52;72.95;99611.38;5185397;28;20292;-76
2022/04/24 05:23:06;;;;;;;4.25;1.92;;;;;;;11.98;70.63;99623.59;5187181;28;20123;-76
2022/04/24 05:25:36;;;;;;;5.47;2.20;;;;;;;11.63;70.58;99624.72;5193556;28;20086;-76
2022/04/24 05:28:07;;;;;;;4.68;2.08;;;;;;;14.06;64.70;99609.91;5192269;28;20101;-76
2022/04/24 05:30:37;;;;;;;5.47;2.05;;;;;;;14.98;62.26;99614.09;5192902;28;20025;-77
2022/04/24 05:33:07;;;;;;;3.60;1.83;;;;;;;14.95;60.92;99614.31;5192184;28;20038;-76
2022/04/24 05:35:37;;;;;;;5.28;2.20;;;;;;;15.75;59.50;99611.28;5192032;28;20355;-77
2022/04/24 05:38:08;;;;;;;4.25;2.30;;;;;;;15.94;59.48;99611.63;5193108;28;20049;-77
2022/04/24 05:40:38;;;;;;;5.00;1.90;;;;;;;15.53;58.77;99619.84;5190581;28;20033;-77
2022/04/24 05:43:08;;;;;;;4.00;1.87;;;;;;;18.25;55.25;99604.81;5192711;28;20217;-77
2022/04/24 05:45:38;;;;;;;4.28;1.98;;;;;;;16.93;56.59;99618.13;5192753;28;20277;-77
2022/04/24 05:48:09;;;;;;;4.55;2.15;;;;;;;16.25;59.32;99622.44;5192523;28;20468;-77
2022/04/24 05:50:39;;;;;;;3.13;1.60;;;;;;;16.00;58.03;99629.63;5182055;28;20041;-77
2022/04/24 05:53:09;;;;;;;3.53;1.90;;;;;;;15.49;59.87;99626.28;5186257;28;20041;-77
2022/04/24 05:55:40;;;;;;;3.97;2.00;;;;;;;12.87;66.66;99631.47;5192288;28;20276;-77
2022/04/24 05:58:10;;;;;;;3.85;1.98;;;;;;;10.85;71.21;99632.50;5190258;28;20380;-77
2022/04/24 06:00:40;;;;;;;5.93;2.27;;;;;;;10.00;77.17;99637.66;5190036;28;20025;-76
2022/04/24 06:03:11;;;;;;;5.00;2.00;;;;;;;9.80;77.11;99641.22;5190156;28;20272;-76
2022/04/24 06:05:41;;;;;;;7.05;2.53;;;;;;;9.58;78.50;99631.84;5191387;28;20025;-76
2022/04/24 06:08:11;;;;;;;5.65;2.10;;;;;;;9.81;78.85;99629.84;5192652;28;20029;-76
2022/04/24 06:10:43;;;;;;;5.93;2.42;;;;;;;9.49;79.52;99634.91;5189851;28;20037;-76
2022/04/24 06:13:13;;;;;;;5.18;2.38;;;;;;;9.71;79.74;99633.84;5190833;28;20104;-76
2022/04/24 06:15:44;;;;;;;4.45;2.10;;;;;;;9.90;79.33;99631.19;5191744;28;20116;-76
2022/04/24 06:18:14;;;;;;;3.90;2.15;;;;;;;9.83;79.16;99629.78;5190532;28;20596;-76
2022/04/24 06:20:44;;;;;;;6.03;2.07;;;;;;;10.31;77.05;99622.22;5181626;28;20407;-76
2022/04/24 06:23:16;;;;;;;5.78;2.10;;;;;;;9.98;78.85;99629.06;5188579;28;20288;-76
2022/04/24 06:25:46;;;;;;;7.57;2.28;;;;;;;10.20;78.68;99624.50;5186865;28;20029;-76
2022/04/24 06:28:16;;;;;;;5.47;2.47;;;;;;;10.00;78.51;99622.00;5189577;28;20403;-76
2022/04/24 06:30:47;;;;;;;7.83;2.10;;;;;;;9.89;79.08;99622.53;5189034;28;20055;-76
2022/04/24 06:33:18;;;;;;;6.65;2.53;;;;;;;9.87;79.88;99613.94;5190480;28;20280;-76
2022/04/24 06:35:48;;;;;;;5.95;2.30;;;;;;;9.99;80.08;99618.53;5188988;28;20030;-76
2022/04/24 06:38:18;;;;;;;3.25;2.00;;;;;;;9.96;78.93;99626.50;5188156;28;20076;-76
2022/04/24 06:40:48;;;;;;;4.65;2.17;;;;;;;9.78;80.52;99630.00;5186787;28;20032;-76
2022/04/24 06:43:19;;;;;;;6.00;2.20;;;;;;;9.91;79.26;99627.66;5190407;28;20025;-76
2022/04/24 06:45:49;;;;;;;5.32;2.63;;;;;;;9.77;79.92;99630.91;5188825;28;20032;-76
2022/04/24 06:48:20;;;;;;;4.70;2.20;;;;;;;10.13;79.33;99626.56;5189397;28;20017;-76
2022/04/24 06:50:50;;;;;;;4.72;2.53;;;;;;;10.16;79.93;99617.75;5186103;28;20029;-76
2022/04/24 06:53:20;;;;;;;4.25;2.30;;;;;;;10.83;77.50;99616.06;5188863;28;20124;-76
2022/04/24 06:55:51;;;;;;;5.05;2.28;;;;;;;11.39;75.30;99610.34;5189022;28;20385;-77
2022/04/24 06:58:21;;;;;;;6.77;2.40;;;;;;;12.45;72.25;99607.81;5189892;28;20495;-77
2022/04/24 07:00:52;;;;;;;6.05;2.40;;;;;;;12.13;72.77;99608.81;5189562;28;20729;-77
2022/04/24 07:03:24;;;;;;;5.00;2.40;;;;;;;12.13;72.07;99601.78;5186055;28;20021;-76
2022/04/24 07:05:56;;;;;;;5.07;2.15;;;;;;;12.49;71.90;99604.06;5188435;28;20022;-76
2022/04/24 07:08:27;;;;;;;4.55;2.25;;;;;;;11.78;74.38;99609.97;5186290;28;20029;-76
2022/04/24 07:10:57;;;;;;;3.95;2.40;;;;;;;12.47;73.65;99605.94;5182718;28;20025;-76
2022/04/24 07:13:28;;;;;;;5.40;2.55;;;;;;;13.06;70.19;99590.97;5192344;28;20036;-76
2022/04/24 07:15:58;;;;;;;4.75;2.53;;;;;;;12.34;72.83;99599.72;5189132;28;20034;-76
2022/04/24 07:18:30;;;;;;;6.25;2.50;;;;;;;12.03;73.88;99589.31;5192180;28;20502;-75
2022/04/24 07:21:02;;;;;;;6.03;2.78;;;;;;;12.64;72.05;99583.03;5179842;28;20022;-76
2022/04/24 07:23:32;;;;;;;5.85;2.75;;;;;;;12.23;74.67;99582.00;5187995;28;20502;-78
2022/04/24 07:26:02;;;;;;;5.43;2.53;;;;;;;12.26;72.36;99573.97;5187833;28;20112;-77
2022/04/24 07:28:33;;;;;;;7.05;2.55;;;;;;;11.58;75.59;99577.03;5187176;28;20284;-77
2022/04/24 07:31:03;;;;;;;5.78;2.65;;;;;;;11.89;75.80;99578.78;5183743;28;20035;-76
2022/04/24 07:33:34;;;;;;;5.32;2.45;;;;;;;12.47;74.08;99564.84;5179072;28;20026;-77
2022/04/24 07:36:05;;;;;;;7.57;2.78;;;;;;;13.14;72.14;99562.47;5177265;28;20040;-76
2022/04/24 07:38:35;;;;;;;5.78;2.83;;;;;;;12.17;72.83;99576.28;5180215;28;20029;-77
2022/04/24 07:41:05;;;;;;;6.45;2.63;;;;;;;11.56;74.75;99584.13;5179660;28;20038;-77
2022/04/24 07:43:35;;;;;;;6.13;2.57;;;;;;;12.59;71.73;99577.22;5189998;28;20025;-77
2022/04/24 07:46:06;;;;;;;6.40;3.20;;;;;;;11.95;73.43;99586.28;5189826;28;20279;-76
2022/04/24 07:48:36;;;;;;;5.37;2.53;;;;;;;12.33;72.79;99575.28;5191302;28;20033;-76
2022/04/24 07:51:06;;;;;;;7.27;3.10;;;;;;;12.59;72.02;99571.13;5178960;28;20269;-76
2022/04/24 07:53:41;;;;;;;5.10;2.77;;;;;;;12.59;72.99;99566.72;5187770;28;20359;-76
2022/04/24 07:56:11;;;;;;;9.27;2.85;;;;;;;13.01;70.59;99564.16;5190282;28;20280;-76
2022/04/24 07:58:41;;;;;;;4.50;2.65;;;;;;;14.69;66.41;99559.16;5189441;28;20041;-77
2022/04/24 08:01:16;;;;;;;5.33;2.90;;;;;;;13.87;68.71;99554.22;5191192;28;20364;-76
2022/04/24 08:03:46;;;;;;;5.90;2.72;;;;;;;13.78;68.73;99558.28;5195195;28;20272;-77
2022/04/24 08:06:16;;;;;;;5.80;3.00;;;;;;;13.76;68.19;99551.47;5192506;28;20528;-77
2022/04/24 08:08:47;;;;;;;5.68;2.78;;;;;;;16.92;60.39;99534.63;5192132;28;20287;-77
2022/04/24 08:11:17;;;;;;;6.13;2.70;;;;;;;16.95;60.49;99537.06;5190933;28;20052;-77
2022/04/24 08:13:47;;;;;;;7.53;2.93;;;;;;;16.33;61.39;99533.06;5194541;28;20282;-77
2022/04/24 08:16:17;;;;;;;4.30;2.60;;;;;;;15.09;64.36;99544.94;5192464;28;20342;-77
2022/04/24 08:18:48;;;;;;;7.70;3.17;;;;;;;15.05;66.68;99533.75;5193109;28;20279;-77
2022/04/24 08:21:18;;;;;;;5.73;2.83;;;;;;;15.08;67.18;99544.09;5184925;28;20299;-77
2022/04/24 08:23:48;;;;;;;5.22;2.78;;;;;;;14.37;67.90;99538.63;5193728;28;20362;-77
2022/04/24 08:26:18;;;;;;;5.67;3.20;;;;;;;14.71;67.76;99536.22;5186555;28;20030;-77
2022/04/24 08:28:49;;;;;;;6.57;2.95;;;;;;;16.92;60.75;99537.25;5195760;28;20271;-77
2022/04/24 08:31:19;;;;;;;8.47;3.23;;;;;;;16.36;62.43;99526.78;5190590;28;20025;-77
2022/04/24 08:33:50;;;;;;;5.97;3.35;;;;;;;15.39;62.53;99548.88;5190887;28;20848;-77
2022/04/24 08:36:20;;;;;;;5.78;3.50;;;;;;;13.55;70.14;99547.59;5193353;28;20108;-77
2022/04/24 08:38:50;;;;;;;6.47;3.83;;;;;;;13.06;72.23;99544.56;5192399;28;20410;-76
2022/04/24 08:41:21;;;;;;;4.95;3.33;;;;;;;13.73;70.79;99531.50;5191335;28;20343;-77
2022/04/24 08:43:55;;;;;;;5.68;3.67;;;;;;;14.55;69.29;99532.09;5188022;28;20025;-77
2022/04/24 08:46:26;;;;;;;6.18;3.60;;;;;;;17.65;61.43;99525.25;5185186;28;20026;-77
2022/04/24 08:48:56;;;;;;;5.55;2.92;;;;;;;16.89;61.94;99526.94;5192066;28;20075;-77
2022/04/24 08:51:27;;;;;;;7.10;3.15;;;;;;;17.87;59.81;99523.38;5188994;28;20036;-77
2022/04/24 08:53:57;;;;;;;4.40;2.83;;;;;;;16.59;61.88;99525.84;5191847;28;20022;-77
2022/04/24 08:56:28;;;;;;;5.88;3.05;;;;;;;17.46;60.67;99536.44;5191832;28;20080;-77
2022/04/24 08:58:58;;;;;;;7.38;3.80;;;;;;;14.84;66.92;99530.00;5195303;28;20041;-77
2022/04/24 09:01:31;;;;;;;8.13;3.33;;;;;;;15.03;66.03;99530.41;5190721;28;20105;-77
2022/04/24 09:04:02;;;;;;;8.07;3.85;;;;;;;15.97;64.48;99527.06;5193650;28;20303;-77
2022/04/24 09:06:32;;;;;;;5.97;3.60;;;;;;;15.59;65.19;99535.16;5191790;28;20104;-77
2022/04/24 09:09:06;;;;;;;7.10;3.83;;;;;;;13.92;69.29;99541.66;5192004;28;20034;-77
2022/04/24 09:11:36;;;;;;;8.13;4.32;;;;;;;13.40;71.28;99540.69;5182613;28;20062;-76
2022/04/24 09:14:15;;;;;;;7.33;4.27;;;;;;;13.13;73.05;99539.78;5193042;28;20384;-76
2022/04/24 09:16:47;;;;;;;6.30;4.15;;;;;;;13.75;71.46;99539.28;5187190;28;20293;-76
2022/04/24 09:19:20;;;;;;;6.88;3.88;;;;;;;14.17;70.36;99532.09;5188383;28;20392;-76
2022/04/24 09:22:00;;;;;;;6.35;3.55;;;;;;;13.69;72.68;99534.41;5188202;28;20029;-77
2022/04/24 09:24:42;;;;;;;7.50;3.70;;;;;;;14.14;71.82;99526.16;5187734;28;20026;-77
2022/04/24 09:27:22;;;;;;;8.43;3.92;;;;;;;14.24;70.28;99528.09;5188008;28;20028;-76
2022/04/24 09:29:59;;;;;;;7.97;3.85;;;;;;;14.45;70.35;99525.81;5194027;28;20060;-76
2022/04/24 09:32:36;;;;;;;9.25;4.53;;;;;;;13.90;71.41;99533.03;5187870;28;20087;-77
2022/04/24 09:35:07;;;;;;;6.53;4.60;;;;;;;13.67;71.75;99533.66;5192910;28;20029;-76
2022/04/24 09:37:41;;;;;;;6.38;4.20;;;;;;;13.68;73.58;99537.97;5191300;28;20318;-76
2022/04/24 09:40:11;;;;;;;9.38;4.45;;;;;;;14.50;71.13;99535.06;5186381;28;20026;-77
2022/04/24 09:42:52;;;;;;;8.38;4.10;;;;;;;15.16;69.54;99541.75;5189626;28;20499;-77
2022/04/24 09:45:25;;;;;;;7.22;4.10;;;;;;;14.10;72.76;99545.69;5190430;28;20057;-76
2022/04/24 09:47:59;;;;;;;8.38;4.60;;;;;;;14.38;71.67;99542.91;5186193;28;20536;-77
2022/04/24 09:50:30;;;;;;;7.30;4.35;;;;;;;14.13;74.64;99538.47;5184949;28;20116;-76
2022/04/24 09:53:02;;;;;;;7.80;4.55;;;;;;;14.13;73.88;99541.09;5188663;28;20032;-77
2022/04/24 09:55:34;;;;;;;8.63;4.25;;;;;;;14.35;71.76;99545.75;5190976;28;20492;-77
2022/04/24 09:58:06;;;;;;;8.32;4.57;;;;;;;14.56;71.78;99539.91;5189447;28;20029;-77
2022/04/24 10:00:36;;;;;;;9.00;4.47;;;;;;;14.08;73.46;99537.06;5189192;28;20384;-76
2022/04/24 10:03:08;;;;;;;8.85;4.72;;;;;;;14.59;73.88;99555.47;5191318;28;20025;-77
2022/04/24 10:05:43;;;;;;;7.80;4.10;;;;;;;14.90;70.74;99540.13;5191911;28;20491;-77
2022/04/24 10:08:15;;;;;;;7.70;4.78;;;;;;;14.04;71.87;99540.81;5191526;28;20092;-77
2022/04/24 10:10:45;;;;;;;7.68;4.80;;;;;;;14.53;73.47;99537.50;5189894;28;20037;-77
2022/04/24 10:13:19;;;;;;;9.00;4.40;;;;;;;14.44;74.38;99540.72;5190821;28;20036;-76
2022/04/24 10:16:04;;;;;;;8.43;4.75;;;;;;;13.85;76.21;99540.34;5192977;28;20487;-77
2022/04/24 10:18:40;;;;;;;8.30;4.97;;;;;;;13.85;74.01;99550.84;5184319;28;20033;-76
2022/04/24 10:21:10;;;;;;;10.13;4.90;;;;;;;13.97;73.86;99537.78;5184761;28;20045;-77
2022/04/24 10:23:41;;;;;;;8.70;4.90;;;;;;;14.29;72.40;99535.69;5189486;28;20030;-76
2022/04/24 10:26:18;;;;;;;7.28;5.00;;;;;;;14.10;73.65;99533.38;5189993;28;20041;-76
2022/04/24 10:29:00;;;;;;;8.65;5.30;;;;;;;14.15;74.94;99540.97;5184379;28;20535;-77
2022/04/24 10:31:41;;;;;;;7.50;5.15;;;;;;;13.79;74.58;99546.00;5177334;28;20424;-77
2022/04/24 10:34:16;;;;;;;8.70;5.00;;;;;;;14.37;73.67;99543.88;5189483;28;20529;-77
2022/04/24 10:36:55;;;;;;;10.27;5.23;;;;;;;14.82;71.30;99533.72;5186822;28;20464;-77
2022/04/24 10:39:28;;;;;;;8.70;5.03;;;;;;;14.47;72.56;99534.44;5181020;28;20280;-77
2022/04/24 10:42:05;;;;;;;8.02;5.25;;;;;;;14.47;72.34;99521.28;5185144;28;20060;-77
2022/04/24 10:44:37;;;;;;;7.57;4.75;;;;;;;14.63;74.11;99514.03;5180027;28;20482;-77
2022/04/24 10:47:11;;;;;;;9.23;5.00;;;;;;;15.07;71.76;99526.63;5175534;28;20025;-77
2022/04/24 10:49:42;;;;;;;10.63;5.05;;;;;;;15.09;71.73;99516.84;5177793;28;20045;-78
2022/04/24 10:52:12;;;;;;;10.03;5.73;;;;;;;14.95;71.36;99516.97;5176366;28;20026;-77
2022/04/24 10:54:44;;;;;;;10.07;5.68;;;;;;;15.25;70.23;99514.81;5173435;28;20283;-77
2022/04/24 10:57:16;;;;;;;8.63;5.30;;;;;;;14.62;70.85;99518.44;5183024;28;20026;-77
2022/04/24 10:59:49;;;;;;;9.25;5.43;;;;;;;14.53;71.22;99516.47;5182806;28;20083;-76
2022/04/24 11:02:24;;;;;;;8.85;5.50;;;;;;;14.70;71.97;99510.88;5192462;28;20029;-77
2022/04/24 11:05:00;;;;;;;9.50;5.93;;;;;;;14.41;73.30;99508.56;5194242;28;20116;-77
2022/04/24 11:07:31;;;;;;;9.15;5.32;;;;;;;14.69;72.64;99503.06;5183694;28;20053;-77
2022/04/24 11:10:09;;;;;;;8.27;5.65;;;;;;;14.86;72.56;99503.59;5187462;28;20057;-77
2022/04/24 11:12:40;;;;;;;9.20;5.35;;;;;;;15.28;72.29;99503.19;5185652;28;20022;-77
2022/04/24 11:15:14;;;;;;;9.65;5.25;;;;;;;15.65;72.25;99499.59;5189609;28;20025;-77
2022/04/24 11:17:44;;;;;;;10.02;6.25;;;;;;;14.70;72.20;99496.88;5186621;28;20401;-77
2022/04/24 11:20:16;;;;;;;10.38;5.57;;;;;;;15.21;72.93;99491.44;5183269;28;20116;-77
2022/04/24 11:22:49;;;;;;;8.95;5.40;;;;;;;15.38;72.18;99499.81;5182447;28;20042;-77
2022/04/24 11:25:22;;;;;;;9.35;5.18;;;;;;;15.35;69.42;99488.69;5188139;28;20017;-77
2022/04/24 11:27:56;;;;;;;10.32;5.97;;;;;;;15.32;72.77;99502.06;5187519;28;20018;-77
2022/04/24 11:30:33;;;;;;;11.65;5.97;;;;;;;14.87;70.58;99503.47;5183328;28;20980;-76
2022/04/24 11:33:06;;;;;;;11.75;5.88;;;;;;;15.21;72.18;99491.44;5177228;28;20029;-77
2022/04/24 11:35:39;;;;;;;8.00;5.15;;;;;;;15.33;70.32;99483.50;5188024;28;20039;-77
2022/04/24 11:38:13;;;;;;;8.98;5.72;;;;;;;15.37;70.51;99495.50;5187488;28;20033;-77
2022/04/24 11:40:46;;;;;;;8.20;5.22;;;;;;;15.01;71.44;99500.72;5184150;28;20408;-76
2022/04/24 11:43:19;;;;;;;8.73;5.57;;;;;;;14.96;71.91;99502.84;5187798;28;20042;-76
2022/04/24 11:51:32;;;;;;;9.63;5.85;;;;;;;14.86;72.59;99504.44;5177127;28;20037;-77
2022/04/24 11:54:02;;;;;;;9.43;5.72;;;;;;;15.22;71.97;99498.38;5188145;28;20037;-77
2022/04/24 11:56:33;;;;;;;14.15;6.03;;;;;;;14.77;71.26;99493.72;5189467;28;20025;-77
2022/04/24 11:59:19;;;;;;;9.52;5.78;;;;;;;14.69;70.48;99492.56;5184126;28;20428;-77
2022/04/24 12:01:58;;;;;;;8.45;5.70;;;;;;;14.92;69.27;99500.53;5183045;28;20393;-77